Etusivu
METAR-TAF:

METAR-TAF

Lentoasemat :

Beaumont, Texas, Yhdysvallat

Leveyspiiri: 30-04-13N, Pituuspiiri: 094-12-54W, korkeus merenpinnasta: 10 m

Tämänhetkinen sää

Tämä raportti tehtiin 23 minuuttia sitten, kello 01.35 UTC
Tuuli 4 kn idästä/kaakosta
Lämpötila 22°C
Kosteus 78%
Ilmanpaine 1008 hPa
Näkyvyys: 16.1 km
selkeää

METAR: KBMT 190135Z AUTO 11004KT 10SM CLR 22/18 A2976 RMK AO2 T02220180

Aika: 19:58 (01:58 UTC)


TAF: puuttuu

Säähavainnot ja -ennusteet yli 4000 lentoasemalta (METAR- ja TAF-raportit).

Käytössä olevat sääasemat on merkitty karttaan keltaisilla ja punaisilla pisteillä.

Aseta hiiri pisteen päälle nähdäksesi sääaseman nimen.

Klikkaa sitten nähdäksesi säähavainnot ja -ennusteet.

Kartan vaihtaminen: klikkaa mustalla rastilla varustettuja vihreitä pisteitä, niin voit zoomata sisään; viivalla varustettua vihreää pistettä, niin voit zoomata ulos tai vihreitä nuolia, niin pääset viereisille kartoille.


METAR-TAF: